createdAt,value
2018-09-23T00:00:36.364Z,11.50
2018-09-23T00:03:04.917Z,11.50
2018-09-23T00:05:33.857Z,11.50
2018-09-23T00:08:02.075Z,11.54
2018-09-23T00:10:30.258Z,11.54
2018-09-23T00:12:58.472Z,11.53
2018-09-23T00:15:26.656Z,11.52
2018-09-23T00:17:55.151Z,11.53
2018-09-23T00:20:23.309Z,11.53
2018-09-23T00:22:51.510Z,11.50
2018-09-23T00:25:31.814Z,11.50
2018-09-23T00:28:00.089Z,11.48
2018-09-23T00:30:28.641Z,11.47
2018-09-23T00:32:56.909Z,11.44
2018-09-23T00:35:25.461Z,11.42
2018-09-23T00:37:54.094Z,11.37
2018-09-23T00:40:25.244Z,11.36
2018-09-23T00:42:53.598Z,11.36
2018-09-23T00:45:22.216Z,11.36
2018-09-23T00:47:50.366Z,11.37
2018-09-23T00:50:18.535Z,11.39
2018-09-23T00:52:46.761Z,11.40
2018-09-23T00:55:15.273Z,11.41
2018-09-23T00:57:43.807Z,11.41
2018-09-23T01:00:12.038Z,11.39
2018-09-23T01:02:40.535Z,11.40
2018-09-23T01:05:08.699Z,11.40
2018-09-23T01:07:36.909Z,11.38
2018-09-23T01:10:05.229Z,11.37
2018-09-23T01:12:33.402Z,11.40
2018-09-23T01:15:01.921Z,11.42
2018-09-23T01:17:30.082Z,11.42
2018-09-23T01:19:58.594Z,11.41
2018-09-23T01:22:27.094Z,11.42
2018-09-23T01:24:55.285Z,11.42
2018-09-23T01:27:23.904Z,11.45
2018-09-23T01:29:52.301Z,11.50
2018-09-23T01:32:20.742Z,11.49
2018-09-23T01:34:49.237Z,11.47
2018-09-23T01:37:18.013Z,11.45
2018-09-23T01:39:46.518Z,11.44
2018-09-23T01:42:14.670Z,11.44
2018-09-23T01:44:42.889Z,11.40
2018-09-23T01:47:11.063Z,11.39
2018-09-23T01:49:39.285Z,11.36
2018-09-23T01:52:07.445Z,11.36
2018-09-23T01:54:35.613Z,11.35
2018-09-23T01:57:06.017Z,11.36
2018-09-23T01:59:34.524Z,11.39
2018-09-23T02:02:03.037Z,11.41
2018-09-23T02:04:31.592Z,11.41
2018-09-23T02:06:59.966Z,11.42
2018-09-23T02:09:28.186Z,11.46
2018-09-23T02:11:56.729Z,11.49
2018-09-23T02:14:25.453Z,11.48
2018-09-23T02:16:53.978Z,11.51
2018-09-23T02:19:22.580Z,11.51
2018-09-23T02:21:51.264Z,11.50
2018-09-23T02:24:19.429Z,11.50
2018-09-23T02:26:47.587Z,11.51
2018-09-23T02:29:15.949Z,11.50
2018-09-23T02:31:44.101Z,11.52
2018-09-23T02:34:12.605Z,11.52
2018-09-23T02:36:41.106Z,11.56
2018-09-23T02:39:10.658Z,11.60
2018-09-23T02:41:38.901Z,11.60
2018-09-23T02:44:07.333Z,11.58
2018-09-23T02:46:35.708Z,11.56
2018-09-23T02:49:04.205Z,11.61
2018-09-23T02:51:32.737Z,11.66
2018-09-23T02:54:01.026Z,11.68
2018-09-23T02:56:29.183Z,11.67
2018-09-23T02:58:58.128Z,11.72
2018-09-23T03:01:26.289Z,11.75
2018-09-23T03:03:54.458Z,11.77
2018-09-23T03:06:23.324Z,11.78
2018-09-23T03:08:51.814Z,11.78
2018-09-23T03:11:20.001Z,11.79
2018-09-23T03:13:48.573Z,11.77
2018-09-23T03:16:16.745Z,11.85
2018-09-23T03:18:44.903Z,11.86
2018-09-23T03:21:13.133Z,11.85
2018-09-23T03:23:41.290Z,11.85
2018-09-23T03:26:09.634Z,11.83
2018-09-23T03:28:38.121Z,11.82
2018-09-23T03:31:06.399Z,11.85
2018-09-23T03:33:34.761Z,11.87
2018-09-23T03:36:03.243Z,11.90
2018-09-23T03:38:31.400Z,11.92
2018-09-23T03:40:59.557Z,11.94
2018-09-23T03:43:27.733Z,11.97
2018-09-23T03:45:56.027Z,11.97
2018-09-23T03:48:24.493Z,11.95
2018-09-23T03:50:52.871Z,11.90
2018-09-23T03:53:21.294Z,11.84
2018-09-23T03:55:49.982Z,11.82
2018-09-23T03:58:18.167Z,11.82
2018-09-23T04:00:46.437Z,11.81
2018-09-23T04:03:14.610Z,11.80
2018-09-23T04:05:42.814Z,11.83
2018-09-23T04:08:11.337Z,11.84
2018-09-23T04:10:39.875Z,11.85
2018-09-23T04:13:08.061Z,11.85
2018-09-23T04:15:36.567Z,11.82
2018-09-23T04:18:05.050Z,11.81
2018-09-23T04:20:33.656Z,11.81
2018-09-23T04:23:02.548Z,11.81
2018-09-23T04:25:30.915Z,11.79
2018-09-23T04:27:59.441Z,11.77
2018-09-23T04:30:27.926Z,11.75
2018-09-23T04:32:56.098Z,11.73
2018-09-23T04:35:24.592Z,11.69
2018-09-23T04:37:53.198Z,11.68
2018-09-23T04:40:21.361Z,11.68
2018-09-23T04:42:50.063Z,11.67
2018-09-23T04:45:18.559Z,11.66
2018-09-23T04:47:50.302Z,11.66
2018-09-23T04:50:20.229Z,11.66
2018-09-23T04:52:49.370Z,11.68
2018-09-23T04:55:19.699Z,11.71
2018-09-23T04:57:48.653Z,11.73
2018-09-23T05:00:18.839Z,11.74
2018-09-23T05:02:49.685Z,11.76
2018-09-23T05:05:21.198Z,11.77
2018-09-23T05:07:51.977Z,11.79
2018-09-23T05:10:20.562Z,11.80
2018-09-23T05:12:49.138Z,11.81
2018-09-23T05:15:17.290Z,11.81
2018-09-23T05:17:45.466Z,11.80
2018-09-23T05:20:13.952Z,11.77
2018-09-23T05:22:42.456Z,11.77
2018-09-23T05:25:10.625Z,11.76
2018-09-23T05:27:38.781Z,11.78
2018-09-23T05:30:07.041Z,11.80
2018-09-23T05:32:35.557Z,11.79
2018-09-23T05:35:03.957Z,11.75
2018-09-23T05:37:32.175Z,11.72
2018-09-23T05:40:00.588Z,11.72
2018-09-23T05:42:28.772Z,11.70
2018-09-23T05:44:56.941Z,11.68
2018-09-23T05:47:25.126Z,11.67
2018-09-23T05:49:53.275Z,11.66
2018-09-23T05:52:21.429Z,11.65
2018-09-23T05:54:49.640Z,11.65
2018-09-23T05:57:17.785Z,11.66
2018-09-23T05:59:46.002Z,11.68
2018-09-23T06:02:14.530Z,11.68
2018-09-23T06:04:42.972Z,11.68
2018-09-23T06:07:11.670Z,11.70
2018-09-23T06:09:40.446Z,11.70
2018-09-23T06:12:08.877Z,11.73
2018-09-23T06:14:37.223Z,11.79
2018-09-23T06:17:05.558Z,11.84
2018-09-23T06:19:33.762Z,11.91
2018-09-23T06:22:02.289Z,11.98
2018-09-23T06:24:30.479Z,12.04
2018-09-23T06:26:58.858Z,12.09
2018-09-23T06:29:27.201Z,12.11
2018-09-23T06:31:55.368Z,12.13
2018-09-23T06:34:24.205Z,12.18
2018-09-23T06:36:52.715Z,12.19
2018-09-23T06:39:21.372Z,12.22
2018-09-23T06:41:49.593Z,12.24
2018-09-23T06:44:18.266Z,12.22
2018-09-23T06:46:46.548Z,12.21
2018-09-23T06:49:14.985Z,12.23
2018-09-23T06:51:43.182Z,12.26
2018-09-23T06:54:11.540Z,12.31
2018-09-23T06:56:39.724Z,12.33
2018-09-23T06:59:08.337Z,12.35
2018-09-23T07:01:37.214Z,12.36
2018-09-23T07:04:05.817Z,12.39
2018-09-23T07:06:34.444Z,12.44
2018-09-23T07:09:02.650Z,12.49
2018-09-23T07:11:33.686Z,12.53
2018-09-23T07:14:02.221Z,12.57
2018-09-23T07:16:30.600Z,12.59
2018-09-23T07:18:58.805Z,12.60
2018-09-23T07:21:27.495Z,12.63
2018-09-23T07:23:56.485Z,12.65
2018-09-23T07:26:24.894Z,12.66
2018-09-23T07:28:53.093Z,12.62
2018-09-23T07:31:21.595Z,12.59
2018-09-23T07:33:50.096Z,12.56
2018-09-23T07:36:18.262Z,12.55
2018-09-23T07:38:46.778Z,12.53
2018-09-23T07:41:14.930Z,12.55
2018-09-23T07:43:43.121Z,12.56
2018-09-23T07:46:11.253Z,12.54
2018-09-23T07:48:39.421Z,12.56
2018-09-23T07:51:07.602Z,12.60
2018-09-23T07:53:36.642Z,12.59
2018-09-23T07:56:04.852Z,12.58
2018-09-23T07:58:33.173Z,12.56
2018-09-23T08:01:01.411Z,12.59
2018-09-23T08:03:29.598Z,12.62
2018-09-23T08:05:58.513Z,12.65
2018-09-23T08:08:26.998Z,12.71
2018-09-23T08:10:55.573Z,12.74
2018-09-23T08:13:24.146Z,12.76
2018-09-23T08:15:52.770Z,12.78
2018-09-23T08:18:20.956Z,12.82
2018-09-23T08:20:49.172Z,12.89
2018-09-23T08:23:17.878Z,12.96
2018-09-23T08:25:46.281Z,13.00
2018-09-23T08:28:14.917Z,13.02
2018-09-23T08:30:43.105Z,13.10
2018-09-23T08:33:11.590Z,13.14
2018-09-23T08:35:40.180Z,13.19
2018-09-23T08:38:08.587Z,13.22
2018-09-23T08:40:37.104Z,13.21
2018-09-23T08:43:05.685Z,13.25
2018-09-23T08:45:33.972Z,13.25
2018-09-23T08:48:02.152Z,13.21
2018-09-23T08:50:30.693Z,13.16
2018-09-23T08:52:58.850Z,13.14
2018-09-23T08:55:27.252Z,13.13
2018-09-23T08:57:55.736Z,13.12
2018-09-23T09:00:27.332Z,13.10
2018-09-23T09:03:04.053Z,13.08
2018-09-23T09:05:32.525Z,13.13
2018-09-23T09:08:01.692Z,13.22
2018-09-23T09:10:29.869Z,13.29
2018-09-23T09:12:58.119Z,13.33
2018-09-23T09:15:29.455Z,13.37
2018-09-23T09:18:01.145Z,13.39
2018-09-23T09:20:29.629Z,13.38
2018-09-23T09:22:57.802Z,13.37
2018-09-23T09:25:25.987Z,13.41
2018-09-23T09:27:54.153Z,13.43
2018-09-23T09:30:22.955Z,13.49
2018-09-23T09:32:51.469Z,13.56
2018-09-23T09:35:20.019Z,13.56
2018-09-23T09:37:48.409Z,13.53
2018-09-23T09:40:16.789Z,13.49
2018-09-23T09:42:44.968Z,13.46
2018-09-23T09:45:13.326Z,13.46
2018-09-23T09:47:41.824Z,13.46
2018-09-23T09:50:09.978Z,13.49
2018-09-23T09:52:38.138Z,13.51
2018-09-23T09:55:06.686Z,13.54
2018-09-23T09:57:35.181Z,13.54
2018-09-23T10:00:05.126Z,13.52
2018-09-23T10:02:33.320Z,13.52
2018-09-23T10:05:01.886Z,13.55
2018-09-23T10:07:30.401Z,13.54
2018-09-23T10:09:58.541Z,13.57
2018-09-23T10:12:26.775Z,13.61
2018-09-23T10:14:54.945Z,13.67
2018-09-23T10:17:23.449Z,13.69
2018-09-23T10:20:04.188Z,13.72
2018-09-23T10:22:33.574Z,13.74
2018-09-23T10:25:01.891Z,13.77
2018-09-23T10:27:30.061Z,13.77
2018-09-23T10:29:58.214Z,13.78
2018-09-23T10:32:28.073Z,13.77
2018-09-23T10:34:56.230Z,13.79
2018-09-23T10:37:24.433Z,13.80
2018-09-23T10:39:52.602Z,13.79
2018-09-23T10:42:20.928Z,13.78
2018-09-23T10:44:50.925Z,13.77
2018-09-23T10:47:20.029Z,13.75
2018-09-23T10:49:48.177Z,13.73
2018-09-23T10:52:16.374Z,13.70
2018-09-23T10:54:44.552Z,13.66
2018-09-23T10:57:12.804Z,13.60
2018-09-23T10:59:41.111Z,13.56
2018-09-23T11:02:17.048Z,13.53
2018-09-23T11:04:47.689Z,13.52
2018-09-23T11:07:16.190Z,13.53
2018-09-23T11:09:44.568Z,13.55
2018-09-23T11:12:12.914Z,13.54
2018-09-23T11:14:41.415Z,13.54
2018-09-23T11:17:09.922Z,13.52
2018-09-23T11:19:39.108Z,13.50
2018-09-23T11:22:11.142Z,13.45
2018-09-23T11:24:39.302Z,13.41
2018-09-23T11:27:07.672Z,13.38
2018-09-23T11:29:36.352Z,13.37
2018-09-23T11:32:05.113Z,13.38
2018-09-23T11:34:33.269Z,13.40
2018-09-23T11:37:01.970Z,13.42
2018-09-23T11:39:30.126Z,13.42
2018-09-23T11:41:58.641Z,13.45
2018-09-23T11:47:55.585Z,13.49
2018-09-23T11:50:23.746Z,13.38
2018-09-23T11:52:52.259Z,13.37
2018-09-23T11:55:21.245Z,13.39
2018-09-23T11:57:49.805Z,13.43
2018-09-23T12:00:18.319Z,13.47
2018-09-23T12:02:48.184Z,13.47
2018-09-23T12:05:19.694Z,13.41
2018-09-23T12:07:48.925Z,13.39
2018-09-23T12:10:17.461Z,13.35
2018-09-23T12:12:46.166Z,13.39
2018-09-23T12:15:14.528Z,13.44
2018-09-23T12:17:43.218Z,13.45
2018-09-23T12:20:11.567Z,13.45
2018-09-23T12:22:39.991Z,13.44
2018-09-23T12:25:08.360Z,13.48
2018-09-23T12:27:36.522Z,13.49
2018-09-23T12:30:06.136Z,13.43
2018-09-23T12:35:19.969Z,13.31
2018-09-23T12:37:48.669Z,13.28
2018-09-23T12:40:17.245Z,13.26
2018-09-23T12:42:45.468Z,13.28
2018-09-23T12:45:13.620Z,13.26
2018-09-23T12:47:43.407Z,13.14
2018-09-23T12:50:11.896Z,13.03
2018-09-23T12:52:40.481Z,13.00
2018-09-23T12:55:09.017Z,12.96
2018-09-23T12:57:37.203Z,12.92
2018-09-23T13:00:05.425Z,12.88
2018-09-23T13:02:33.964Z,12.82
2018-09-23T13:05:02.639Z,12.80
2018-09-23T13:07:31.302Z,12.82
2018-09-23T13:09:59.808Z,12.85
2018-09-23T13:12:28.189Z,12.83
2018-09-23T13:14:56.359Z,12.83
2018-09-23T13:17:25.078Z,12.88
2018-09-23T13:19:53.257Z,12.88
2018-09-23T13:22:21.580Z,12.86
2018-09-23T13:24:49.979Z,12.85
2018-09-23T13:27:18.343Z,12.86
2018-09-23T13:29:46.616Z,12.85
2018-09-23T13:32:15.111Z,12.87
2018-09-23T13:34:43.278Z,12.87
2018-09-23T13:37:11.778Z,12.86
2018-09-23T13:39:39.942Z,12.83
2018-09-23T13:42:08.365Z,12.73
2018-09-23T13:44:36.760Z,12.66
2018-09-23T13:47:05.528Z,12.61
2018-09-23T13:49:34.201Z,12.58
2018-09-23T13:52:02.895Z,12.54
2018-09-23T13:54:31.198Z,12.49
2018-09-23T13:56:59.801Z,12.46
2018-09-23T13:59:28.458Z,12.45
2018-09-23T14:01:57.005Z,12.47
2018-09-23T14:04:25.189Z,12.50
2018-09-23T14:06:53.513Z,12.59
2018-09-23T14:09:22.086Z,12.63
2018-09-23T14:11:50.941Z,12.72
2018-09-23T14:14:19.191Z,12.79
2018-09-23T14:16:47.497Z,12.83
2018-09-23T14:19:15.709Z,12.81
2018-09-23T14:21:44.243Z,12.85
2018-09-23T14:24:12.725Z,12.91
2018-09-23T14:26:41.064Z,12.89
2018-09-23T14:29:09.258Z,12.88
2018-09-23T14:31:37.781Z,12.88
2018-09-23T14:34:06.360Z,12.92
2018-09-23T14:36:34.560Z,12.97
2018-09-23T14:39:04.343Z,13.04
2018-09-23T14:41:32.473Z,13.09
2018-09-23T14:44:01.193Z,13.11
2018-09-23T14:46:29.670Z,13.09
2018-09-23T14:48:58.048Z,13.13
2018-09-23T14:51:26.801Z,13.24
2018-09-23T14:53:54.964Z,13.29
2018-09-23T14:56:23.125Z,13.34
2018-09-23T14:58:51.373Z,13.35
2018-09-23T15:01:20.024Z,13.31
2018-09-23T15:03:48.285Z,13.32
2018-09-23T15:06:17.712Z,13.28
2018-09-23T15:08:46.233Z,13.18
2018-09-23T15:11:16.242Z,13.12
2018-09-23T15:13:45.782Z,13.07
2018-09-23T15:16:15.248Z,13.01
2018-09-23T15:18:46.070Z,12.92
2018-09-23T15:21:16.929Z,12.81
2018-09-23T15:23:50.024Z,12.68
2018-09-23T15:26:18.493Z,12.55
2018-09-23T15:28:47.038Z,12.42
2018-09-23T15:31:15.726Z,12.39
2018-09-23T15:33:43.871Z,12.44
2018-09-23T15:36:12.101Z,12.43
2018-09-23T15:38:40.305Z,12.37
2018-09-23T15:41:09.144Z,12.26
2018-09-23T15:43:37.886Z,12.21
2018-09-23T15:46:06.697Z,12.17
2018-09-23T15:48:34.845Z,12.13
2018-09-23T15:51:03.059Z,12.08
2018-09-23T15:53:31.402Z,11.99
2018-09-23T15:55:59.897Z,11.91
2018-09-23T15:58:28.542Z,11.87
2018-09-23T16:00:57.280Z,11.80
2018-09-23T16:03:25.454Z,11.73
2018-09-23T16:05:53.603Z,11.65
2018-09-23T16:08:21.820Z,11.56
2018-09-23T16:10:50.016Z,11.48
2018-09-23T16:13:18.270Z,11.51
2018-09-23T16:15:49.101Z,11.56
2018-09-23T16:18:17.632Z,11.53
2018-09-23T16:20:45.977Z,11.48
2018-09-23T16:23:14.138Z,11.45
2018-09-23T16:25:42.296Z,11.42
2018-09-23T16:28:11.577Z,11.45
2018-09-23T16:30:40.164Z,11.38
2018-09-23T16:33:09.189Z,11.34
2018-09-23T16:35:40.048Z,11.30
2018-09-23T16:38:08.813Z,11.33
2018-09-23T16:40:38.908Z,11.38
2018-09-23T16:43:08.688Z,11.49
2018-09-23T16:45:36.949Z,11.61
2018-09-23T16:48:05.451Z,11.66
2018-09-23T16:50:34.289Z,11.65
2018-09-23T16:53:02.604Z,11.68
2018-09-23T16:55:40.102Z,11.74
2018-09-23T16:58:08.277Z,11.86
2018-09-23T17:00:36.527Z,12.03
2018-09-23T17:03:05.738Z,12.15
2018-09-23T17:05:34.288Z,12.13
2018-09-23T17:08:02.537Z,12.04
2018-09-23T17:10:30.981Z,12.00
2018-09-23T17:12:59.157Z,12.09
2018-09-23T17:15:27.341Z,12.19
2018-09-23T17:17:55.828Z,12.14
2018-09-23T17:20:24.186Z,11.98
2018-09-23T17:22:52.464Z,11.88
2018-09-23T17:25:21.097Z,11.79
2018-09-23T17:27:49.555Z,11.71
2018-09-23T17:30:17.747Z,11.67
2018-09-23T17:32:46.076Z,11.61
2018-09-23T17:35:14.774Z,11.62
2018-09-23T17:37:43.168Z,11.65
2018-09-23T17:40:11.565Z,11.67
2018-09-23T17:42:39.766Z,11.63
2018-09-23T17:45:07.969Z,11.56
2018-09-23T17:47:36.144Z,11.53
2018-09-23T17:50:04.311Z,11.60
2018-09-23T17:52:32.818Z,11.61
2018-09-23T17:55:01.038Z,11.52
2018-09-23T17:57:29.596Z,11.43
2018-09-23T17:59:58.072Z,11.34
2018-09-23T18:02:26.873Z,11.19
2018-09-23T18:04:55.065Z,11.11
2018-09-23T18:07:23.825Z,11.04
2018-09-23T18:09:55.365Z,10.90
2018-09-23T18:12:23.602Z,10.85
2018-09-23T18:14:52.142Z,10.85
2018-09-23T18:17:20.370Z,10.86
2018-09-23T18:19:48.529Z,10.82
2018-09-23T18:22:17.045Z,10.79
2018-09-23T18:24:45.558Z,10.75
2018-09-23T18:27:13.776Z,10.73
2018-09-23T18:29:41.980Z,10.77
2018-09-23T18:32:10.145Z,10.73
2018-09-23T18:34:38.320Z,10.72
2018-09-23T18:37:06.884Z,10.70
2018-09-23T18:39:35.440Z,10.69
2018-09-23T18:42:03.850Z,10.70
2018-09-23T18:44:32.064Z,10.67
2018-09-23T18:47:00.403Z,10.62
2018-09-23T18:49:28.877Z,10.55
2018-09-23T18:51:57.361Z,10.51
2018-09-23T18:54:31.170Z,10.49
2018-09-23T18:56:59.535Z,10.48
2018-09-23T18:59:30.084Z,10.46
2018-09-23T19:01:58.601Z,10.44
2018-09-23T19:04:26.913Z,10.42
2018-09-23T19:06:55.658Z,10.42
2018-09-23T19:09:23.825Z,10.47
2018-09-23T19:11:52.243Z,10.53
2018-09-23T19:14:20.393Z,10.58
2018-09-23T19:16:48.550Z,10.60
2018-09-23T19:19:16.707Z,10.60
2018-09-23T19:21:45.205Z,10.60
2018-09-23T19:24:13.362Z,10.59
2018-09-23T19:26:41.871Z,10.58
2018-09-23T19:29:10.353Z,10.57
2018-09-23T19:31:38.620Z,10.57
2018-09-23T19:34:06.761Z,10.53
2018-09-23T19:36:35.221Z,10.53
2018-09-23T19:39:04.078Z,10.54
2018-09-23T19:41:32.732Z,10.53
2018-09-23T19:44:04.490Z,10.51
2018-09-23T19:46:34.021Z,10.51
2018-09-23T19:49:02.179Z,10.53
2018-09-23T19:51:30.306Z,10.60
2018-09-23T19:53:58.517Z,10.61
2018-09-23T19:56:26.661Z,10.57
2018-09-23T19:58:55.318Z,10.53
2018-09-23T20:01:23.825Z,10.50
2018-09-23T20:03:51.974Z,10.49
2018-09-23T20:06:20.141Z,10.52
2018-09-23T20:08:48.318Z,10.53
2018-09-23T20:11:16.811Z,10.54
2018-09-23T20:13:45.009Z,10.55
2018-09-23T20:16:13.178Z,10.58
2018-09-23T20:18:41.816Z,10.58
2018-09-23T20:21:10.298Z,10.58
2018-09-23T20:23:38.534Z,10.59
2018-09-23T20:26:06.680Z,10.62
2018-09-23T20:28:35.043Z,10.61
2018-09-23T20:31:03.178Z,10.57
2018-09-23T20:33:31.371Z,10.58
2018-09-23T20:35:59.916Z,10.60
2018-09-23T20:38:28.216Z,10.60
2018-09-23T20:40:56.353Z,10.60
2018-09-23T20:43:24.919Z,10.61
2018-09-23T20:45:53.127Z,10.63
2018-09-23T20:48:21.321Z,10.65
2018-09-23T20:50:49.493Z,10.60
2018-09-23T20:53:17.652Z,10.59
2018-09-23T20:55:46.154Z,10.56
2018-09-23T20:58:14.321Z,10.54
2018-09-23T21:00:43.397Z,10.49
2018-09-23T21:03:14.294Z,10.44
2018-09-23T21:05:43.853Z,10.45
2018-09-23T21:08:12.623Z,10.44
2018-09-23T21:10:40.761Z,10.40
2018-09-23T21:13:10.045Z,10.39
2018-09-23T21:15:39.228Z,10.41
2018-09-23T21:18:08.052Z,10.43
2018-09-23T21:20:36.217Z,10.45
2018-09-23T21:23:04.553Z,10.43
2018-09-23T21:25:32.718Z,10.44
2018-09-23T21:28:01.066Z,10.41
2018-09-23T21:30:29.557Z,10.34
2018-09-23T21:32:58.044Z,10.28
2018-09-23T21:35:26.544Z,10.28
2018-09-23T21:37:54.894Z,10.25
2018-09-23T21:40:23.081Z,10.24
2018-09-23T21:42:52.097Z,10.21
2018-09-23T21:45:20.270Z,10.13
2018-09-23T21:47:49.083Z,10.14
2018-09-23T21:50:20.185Z,10.11
2018-09-23T21:52:50.396Z,10.11
2018-09-23T21:55:20.138Z,10.08
2018-09-23T21:57:50.005Z,10.03
2018-09-23T22:00:18.925Z,10.00
2018-09-23T22:02:47.476Z,9.96
2018-09-23T22:05:16.656Z,9.96
2018-09-23T22:07:52.057Z,9.97
2018-09-23T22:10:20.208Z,9.95
2018-09-23T22:12:48.373Z,9.89
2018-09-23T22:15:21.925Z,9.89
2018-09-23T22:17:50.265Z,9.85
2018-09-23T22:20:18.480Z,9.83
2018-09-23T22:22:46.957Z,9.83
2018-09-23T22:25:15.410Z,9.81
2018-09-23T22:27:43.636Z,9.82
2018-09-23T22:30:11.851Z,9.81
2018-09-23T22:32:40.136Z,9.80
2018-09-23T22:35:08.838Z,9.81
2018-09-23T22:37:37.364Z,9.82
2018-09-23T22:40:06.847Z,9.81
2018-09-23T22:42:36.534Z,9.74
2018-09-23T22:45:05.334Z,9.73
2018-09-23T22:47:33.493Z,9.72
2018-09-23T22:50:03.065Z,9.72
2018-09-23T22:52:31.570Z,9.75
2018-09-23T22:54:59.713Z,9.73
2018-09-23T22:57:28.226Z,9.75
2018-09-23T22:59:56.744Z,9.74
2018-09-23T23:02:25.103Z,9.69
2018-09-23T23:04:53.274Z,9.67
2018-09-23T23:07:21.984Z,9.59
2018-09-23T23:09:50.401Z,9.58
2018-09-23T23:12:18.924Z,9.62
2018-09-23T23:14:47.124Z,9.60
2018-09-23T23:17:16.336Z,9.58
2018-09-23T23:19:44.822Z,9.55
2018-09-23T23:22:13.344Z,9.54
2018-09-23T23:24:42.113Z,9.54
2018-09-23T23:27:10.268Z,9.54
2018-09-23T23:29:38.409Z,9.54
2018-09-23T23:32:07.360Z,9.51
2018-09-23T23:34:36.113Z,9.53
2018-09-23T23:37:05.085Z,9.51
2018-09-23T23:39:33.227Z,9.50
2018-09-23T23:42:01.394Z,9.46
2018-09-23T23:44:29.549Z,9.46
2018-09-23T23:46:58.278Z,9.47
2018-09-23T23:49:26.765Z,9.42
2018-09-23T23:51:55.275Z,9.36
2018-09-23T23:54:23.773Z,9.29
2018-09-23T23:56:52.270Z,9.31
2018-09-23T23:59:20.417Z,9.28
